Time;durP1;ratioP1;P1;durP2;ratioP2;P2;SDS_P1;SDS_P2;PMS_P1;PMS_P2;Temp;Humidity;BMP_temperature;BMP_pressure;BME280_temperature;BME280_humidity;BME280_pressure;Samples;Min_cycle;Max_cycle;Signal;HPM_P1;HPM_P2
2023/07/28 00:00:25;;;;;;;5.90;3.00;;;21.80;96.10;;;;;;7385139;19;20010;-73
2023/07/28 00:02:53;;;;;;;;;;;21.90;96.10;;;;;;7385447;19;20202;-73
2023/07/28 00:05:22;;;;;;;6.97;3.03;;;21.90;95.90;;;;;;7407590;19;19920;-73
2023/07/28 00:07:52;;;;;;;6.15;3.05;;;22.00;95.90;;;;;;7388157;19;20007;-75
2023/07/28 00:10:25;;;;;;;9.27;3.60;;;22.00;96.00;;;;;;7385230;19;20002;-74
2023/07/28 00:12:59;;;;;;;7.70;3.13;;;21.90;95.90;;;;;;7385477;19;20068;-74
2023/07/28 00:15:29;;;;;;;5.68;3.17;;;22.00;96.00;;;;;;7385273;19;20006;-74
2023/07/28 00:18:12;;;;;;;9.80;3.80;;;22.00;95.90;;;;;;7383766;19;20036;-74
2023/07/28 00:20:41;;;;;;;8.00;3.15;;;22.00;95.90;;;;;;7386252;19;20025;-73
2023/07/28 00:23:10;;;;;;;13.32;3.40;;;21.90;96.00;;;;;;7410079;19;20028;-74
2023/07/28 00:25:40;;;;;;;4.60;3.30;;;21.90;95.90;;;;;;7386741;19;20007;-72
2023/07/28 00:28:13;;;;;;;7.82;3.42;;;21.80;96.30;;;;;;7388147;19;20010;-73
2023/07/28 00:30:42;;;;;;;14.30;3.80;;;21.70;96.40;;;;;;7388362;19;20059;-73
2023/07/28 00:33:12;;;;;;;6.68;3.58;;;21.60;96.40;;;;;;7386553;19;19999;-73
2023/07/28 00:35:43;;;;;;;5.80;3.73;;;21.60;96.60;;;;;;7383718;19;20011;-73
2023/07/28 00:38:14;;;;;;;4.88;3.22;;;21.60;96.70;;;;;;7406396;19;20006;-74
2023/07/28 00:40:45;;;;;;;6.03;2.92;;;21.70;96.60;;;;;;7386404;19;20006;-72
2023/07/28 00:43:16;;;;;;;5.10;3.00;;;21.60;96.60;;;;;;7386319;19;20011;-72
2023/07/28 00:45:45;;;;;;;;;;;21.60;96.60;;;;;;7387787;19;20231;-73
2023/07/28 00:48:17;;;;;;;5.55;2.70;;;21.50;96.80;;;;;;7385891;19;19910;-74
2023/07/28 00:50:51;;;;;;;6.45;3.17;;;21.60;96.70;;;;;;7386745;19;20356;-73
2023/07/28 00:53:22;;;;;;;5.10;3.20;;;21.70;96.70;;;;;;7406313;19;20006;-73
2023/07/28 00:55:52;;;;;;;7.70;3.83;;;21.70;96.60;;;;;;7383631;19;20227;-74
2023/07/28 00:58:25;;;;;;;7.85;3.20;;;21.70;96.70;;;;;;7384300;19;20010;-73
2023/07/28 01:00:55;;;;;;;10.98;3.25;;;21.70;96.70;;;;;;7383968;19;20007;-73
2023/07/28 01:03:24;;;;;;;8.27;3.63;;;21.80;96.50;;;;;;7383706;19;20009;-73
2023/07/28 01:06:00;;;;;;;6.15;3.35;;;21.90;96.40;;;;;;7384254;19;20091;-73
2023/07/28 01:08:33;;;;;;;7.15;3.47;;;21.80;96.40;;;;;;7409005;19;20066;-73
2023/07/28 01:11:03;;;;;;;7.57;3.00;;;21.90;96.40;;;;;;7383726;19;20011;-74
2023/07/28 01:13:35;;;;;;;6.43;2.90;;;21.90;96.30;;;;;;7382707;19;20027;-74
2023/07/28 01:16:04;;;;;;;4.30;3.00;;;21.90;96.30;;;;;;7382429;19;20015;-73
2023/07/28 01:18:33;;;;;;;10.23;2.90;;;22.00;96.20;;;;;;7383405;19;20002;-74
2023/07/28 01:21:05;;;;;;;5.13;3.10;;;22.00;96.10;;;;;;7383452;19;20003;-73
2023/07/28 01:23:44;;;;;;;5.80;2.88;;;22.00;96.20;;;;;;7405486;19;20011;-74
2023/07/28 01:26:14;;;;;;;5.70;2.70;;;21.90;96.10;;;;;;7383657;19;20011;-73
2023/07/28 01:28:48;;;;;;;4.72;2.90;;;22.00;96.20;;;;;;7383581;19;20287;-72
2023/07/28 01:31:17;;;;;;;8.40;2.97;;;22.00;96.20;;;;;;7382727;19;20034;-73
2023/07/28 01:33:48;;;;;;;9.30;3.22;;;22.00;96.20;;;;;;7385383;19;20368;-72
2023/07/28 01:36:17;;;;;;;3.95;2.90;;;22.10;96.30;;;;;;7386731;19;20252;-73
2023/07/28 01:38:45;;;;;;;4.80;2.67;;;22.00;96.20;;;;;;7385590;19;20007;-73
2023/07/28 01:41:14;;;;;;;4.80;2.78;;;22.10;96.20;;;;;;7406195;19;20214;-73
2023/07/28 01:43:46;;;;;;;3.65;2.65;;;22.00;96.20;;;;;;7382761;19;20052;-73
2023/07/28 01:46:14;;;;;;;;;;;22.00;96.10;;;;;;7383710;19;19999;-73
2023/07/28 01:48:44;;;;;;;7.30;3.00;;;22.00;96.10;;;;;;7383753;19;19907;-73
2023/07/28 01:51:13;;;;;;;6.97;3.00;;;22.00;96.10;;;;;;7390254;19;20239;-72
2023/07/28 01:53:42;;;;;;;5.40;2.90;;;22.10;96.10;;;;;;7386817;19;20010;-72
2023/07/28 01:56:10;;;;;;;9.13;2.60;;;22.10;96.00;;;;;;7410134;19;20006;-72
2023/07/28 01:58:41;;;;;;;5.18;2.70;;;22.20;96.00;;;;;;7388715;19;20024;-74
2023/07/28 02:01:16;;;;;;;6.25;2.70;;;22.20;96.10;;;;;;7388577;19;20014;-74
2023/07/28 02:03:45;;;;;;;7.72;2.90;;;22.20;96.00;;;;;;7389197;19;20030;-73
2023/07/28 02:06:16;;;;;;;5.40;2.55;;;22.30;96.00;;;;;;7389262;19;20006;-72
2023/07/28 02:08:45;;;;;;;10.35;2.70;;;22.30;95.90;;;;;;7386409;19;20024;-73
2023/07/28 02:11:13;;;;;;;4.95;2.20;;;22.20;95.80;;;;;;7410296;19;20268;-72
2023/07/28 02:13:42;;;;;;;5.32;2.90;;;22.20;95.80;;;;;;7388112;19;20011;-73
2023/07/28 02:16:13;;;;;;;3.72;2.38;;;22.20;95.80;;;;;;7386099;19;19999;-73
2023/07/28 02:18:42;;;;;;;;;;;22.10;95.90;;;;;;7388429;19;20357;-73
2023/07/28 02:21:12;;;;;;;7.40;2.55;;;22.20;96.00;;;;;;7391039;19;19910;-74
2023/07/28 02:23:44;;;;;;;4.25;2.78;;;22.20;95.90;;;;;;7388345;19;20014;-74
2023/07/28 02:26:12;;;;;;;6.13;2.72;;;22.10;95.90;;;;;;7408793;19;20267;-74
2023/07/28 02:28:41;;;;;;;7.25;2.72;;;22.10;96.40;;;;;;7384699;19;20239;-72
2023/07/28 02:31:12;;;;;;;7.72;2.65;;;22.10;96.00;;;;;;7387821;19;20019;-73
2023/07/28 02:33:41;;;;;;;4.18;2.28;;;22.20;96.10;;;;;;7388187;19;20002;-72
2023/07/28 02:36:10;;;;;;;4.82;2.55;;;22.10;96.10;;;;;;7387921;19;20091;-73
2023/07/28 02:38:38;;;;;;;5.30;2.20;;;21.90;96.30;;;;;;7387740;19;20014;-73
2023/07/28 02:41:07;;;;;;;10.32;2.65;;;21.90;96.30;;;;;;7408797;19;20545;-73
2023/07/28 02:43:36;;;;;;;6.22;2.40;;;22.00;96.30;;;;;;7389687;19;20356;-73
2023/07/28 02:46:07;;;;;;;6.55;2.60;;;21.90;96.40;;;;;;7388539;19;20010;-72
2023/07/28 02:48:39;;;;;;;6.38;2.17;;;22.00;96.40;;;;;;7387083;19;20040;-73
2023/07/28 02:51:07;;;;;;;;;;;22.00;96.80;;;;;;7389926;19;20123;-72
2023/07/28 02:53:36;;;;;;;4.60;2.65;;;22.10;96.30;;;;;;7398202;19;19907;-73
2023/07/28 02:56:05;;;;;;;6.22;2.40;;;22.20;96.10;;;;;;7409362;19;20012;-73
2023/07/28 02:58:33;;;;;;;7.30;2.55;;;22.20;96.10;;;;;;7388282;19;20052;-73
2023/07/28 03:01:02;;;;;;;9.30;3.03;;;22.20;96.10;;;;;;7387704;19;20014;-73
2023/07/28 03:03:31;;;;;;;6.70;2.50;;;22.10;96.10;;;;;;7388789;19;20526;-75
2023/07/28 03:06:02;;;;;;;5.85;2.38;;;22.10;96.20;;;;;;7389835;19;20006;-74
2023/07/28 03:08:30;;;;;;;;;;;22.10;96.30;;;;;;7408562;19;20014;-74
2023/07/28 03:11:02;;;;;;;3.45;2.45;;;22.10;96.30;;;;;;7388510;19;19914;-73
2023/07/28 03:13:30;;;;;;;2.78;2.30;;;22.10;96.20;;;;;;7389347;19;20010;-73
2023/07/28 03:15:59;;;;;;;5.80;2.47;;;22.10;96.10;;;;;;7389166;19;20396;-74
2023/07/28 03:18:28;;;;;;;5.00;2.10;;;22.20;96.20;;;;;;7389799;19;20039;-72
2023/07/28 03:20:56;;;;;;;4.63;2.35;;;22.10;96.20;;;;;;7389536;19;20003;-72
2023/07/28 03:23:28;;;;;;;3.85;2.40;;;22.10;96.30;;;;;;7409965;19;20019;-72
2023/07/28 03:25:56;;;;;;;5.68;2.30;;;22.00;96.30;;;;;;7387932;19;20404;-73
2023/07/28 03:28:25;;;;;;;2.55;2.22;;;22.10;96.30;;;;;;7389149;19;20024;-74
2023/07/28 03:30:54;;;;;;;6.72;2.70;;;22.10;96.30;;;;;;7389189;19;20003;-73
2023/07/28 03:33:24;;;;;;;4.22;2.40;;;22.10;96.30;;;;;;7388720;19;20024;-72
2023/07/28 03:35:58;;;;;;;4.45;2.47;;;22.10;96.40;;;;;;7389157;19;20010;-73
2023/07/28 03:38:29;;;;;;;4.18;2.42;;;22.10;96.70;;;;;;7411218;19;20028;-72
2023/07/28 03:40:58;;;;;;;7.18;2.75;;;22.10;96.90;;;;;;7389521;19;20353;-72
2023/07/28 03:43:29;;;;;;;3.13;2.47;;;22.10;97.10;;;;;;7390062;19;20364;-72
2023/07/28 03:45:58;;;;;;;6.97;3.03;;;22.10;97.20;;;;;;7390719;19;20023;-73
2023/07/28 03:48:26;;;;;;;10.50;3.00;;;22.10;97.60;;;;;;7389051;19;20019;-72
2023/07/28 03:50:55;;;;;;;8.98;3.30;;;22.00;98.20;;;;;;7389684;19;20006;-73
2023/07/28 03:53:26;;;;;;;12.45;3.60;;;22.10;98.10;;;;;;7418796;19;20013;-75
2023/07/28 03:55:58;;;;;;;10.20;3.63;;;22.00;98.20;;;;;;7398992;19;20050;-72
2023/07/28 03:58:27;;;;;;;16.13;4.05;;;22.00;98.50;;;;;;7396074;19;20020;-73
2023/07/28 04:00:56;;;;;;;8.00;3.30;;;22.00;98.70;;;;;;7395150;19;20310;-73
2023/07/28 04:03:25;;;;;;;7.13;3.65;;;22.00;98.90;;;;;;7394059;19;20023;-74
2023/07/28 04:05:53;;;;;;;12.38;3.85;;;22.00;99.00;;;;;;7389310;19;20398;-74
2023/07/28 04:08:22;;;;;;;15.60;3.30;;;22.00;99.10;;;;;;7408144;19;20007;-74
2023/07/28 04:10:51;;;;;;;9.60;3.42;;;22.00;99.20;;;;;;7384303;19;20373;-74
2023/07/28 04:13:22;;;;;;;6.70;3.58;;;22.00;99.50;;;;;;7385419;19;20010;-74
2023/07/28 04:15:50;;;;;;;;;;;21.90;99.20;;;;;;7385154;19;19998;-73
2023/07/28 04:18:20;;;;;;;13.70;3.38;;;22.00;99.40;;;;;;7382621;19;20229;-73
2023/07/28 04:20:48;;;;;;;8.05;3.42;;;21.90;99.20;;;;;;7382426;19;20269;-74
2023/07/28 04:23:17;;;;;;;8.10;3.53;;;21.90;99.40;;;;;;7405882;19;20011;-73
2023/07/28 04:25:46;;;;;;;8.93;4.72;;;21.90;99.50;;;;;;7384325;19;20227;-74
2023/07/28 04:28:17;;;;;;;16.17;7.55;;;21.90;99.60;;;;;;7386442;19;20024;-74
2023/07/28 04:30:49;;;;;;;7.80;3.25;;;21.90;99.70;;;;;;7386182;19;19999;-73
2023/07/28 04:33:17;;;;;;;;;;;22.00;99.50;;;;;;7386923;19;20006;-74
2023/07/28 04:35:46;;;;;;;5.43;2.17;;;22.00;99.50;;;;;;7385990;19;19948;-73
2023/07/28 04:38:14;;;;;;;3.22;1.30;;;22.00;99.40;;;;;;7404889;19;20022;-72
2023/07/28 04:40:43;;;;;;;3.05;1.50;;;21.90;99.20;;;;;;7384807;19;20020;-73
2023/07/28 04:43:12;;;;;;;6.03;1.30;;;21.80;99.10;;;;;;7385939;19;20019;-73
2023/07/28 04:45:40;;;;;;;3.72;1.50;;;21.80;99.20;;;;;;7385295;19;20015;-73
2023/07/28 04:48:12;;;;;;;1.55;1.10;;;21.70;99.20;;;;;;7384614;19;20002;-73
2023/07/28 04:50:40;;;;;;;;;;;21.70;99.30;;;;;;7386719;19;20006;-73
2023/07/28 04:53:09;;;;;;;1.30;1.10;;;21.80;99.30;;;;;;7410403;19;19940;-72
2023/07/28 04:55:41;;;;;;;3.35;1.10;;;21.80;99.10;;;;;;7385545;19;20011;-72
2023/07/28 04:58:10;;;;;;;;;;;21.70;99.00;;;;;;7388978;19;20010;-74
2023/07/28 05:00:39;;;;;;;3.92;1.77;;;21.80;99.10;;;;;;7387907;19;19934;-73
2023/07/28 05:03:07;;;;;;;6.32;1.27;;;21.80;99.00;;;;;;7384303;19;20014;-73
2023/07/28 05:05:39;;;;;;;1.98;1.02;;;21.70;99.10;;;;;;7393092;19;20018;-73
2023/07/28 05:08:07;;;;;;;;;;;21.80;99.30;;;;;;7405470;19;20007;-74
2023/07/28 05:10:36;;;;;;;2.35;1.02;;;21.90;99.30;;;;;;7382734;19;19911;-74
2023/07/28 05:13:05;;;;;;;2.47;1.33;;;21.90;99.10;;;;;;7382286;19;20006;-73
2023/07/28 05:15:34;;;;;;;2.10;1.08;;;21.90;99.20;;;;;;7383417;19;20063;-73
2023/07/28 05:18:02;;;;;;;2.33;1.13;;;21.90;99.20;;;;;;7384249;19;20428;-74
2023/07/28 05:20:31;;;;;;;2.17;1.05;;;21.90;99.10;;;;;;7407270;19;20014;-73
2023/07/28 05:23:03;;;;;;;2.72;1.10;;;21.90;99.10;;;;;;7384974;19;20003;-74
2023/07/28 05:25:34;;;;;;;;;;;21.90;98.90;;;;;;7384155;19;20013;-74
2023/07/28 05:28:03;;;;;;;5.35;1.42;;;21.90;98.90;;;;;;7383838;19;20243;-73
2023/07/28 05:30:33;;;;;;;2.92;1.45;;;22.00;98.90;;;;;;7382709;19;20021;-73
2023/07/28 05:33:03;;;;;;;2.17;1.27;;;21.90;98.80;;;;;;7383742;19;20015;-75
2023/07/28 05:35:33;;;;;;;5.68;1.63;;;21.90;99.20;;;;;;7404786;19;20014;-75
2023/07/28 05:38:04;;;;;;;1.95;1.30;;;21.90;99.00;;;;;;7380444;19;20083;-74
2023/07/28 05:40:39;;;;;;;;;;;21.90;98.90;;;;;;7384545;19;20011;-75
2023/07/28 05:43:07;;;;;;;3.97;1.73;;;22.00;98.90;;;;;;7382687;19;19978;-75
2023/07/28 05:45:36;;;;;;;3.85;1.80;;;22.10;98.80;;;;;;7382988;19;20015;-75
2023/07/28 05:48:05;;;;;;;9.95;1.70;;;22.00;98.70;;;;;;7380678;19;20014;-75
2023/07/28 05:50:40;;;;;;;5.55;2.00;;;22.10;98.70;;;;;;7404642;19;20006;-75
2023/07/28 05:53:13;;;;;;;4.95;1.60;;;22.10;98.70;;;;;;7381748;19;20006;-75
2023/07/28 05:55:42;;;;;;;3.58;1.60;;;22.00;98.60;;;;;;7381553;19;20054;-75
2023/07/28 05:58:11;;;;;;;2.92;1.58;;;22.10;98.50;;;;;;7383621;19;20006;-77
2023/07/28 06:00:42;;;;;;;3.08;1.63;;;22.10;98.60;;;;;;7383657;19;20006;-75
2023/07/28 06:03:14;;;;;;;6.18;1.80;;;22.10;98.60;;;;;;7381965;19;20011;-75
2023/07/28 06:05:43;;;;;;;7.18;1.70;;;22.10;98.60;;;;;;7381148;19;20010;-75
2023/07/28 06:08:14;;;;;;;2.78;1.88;;;22.20;98.60;;;;;;7404598;19;20007;-74
2023/07/28 06:10:42;;;;;;;;;;;22.10;98.40;;;;;;7384596;19;20011;-76
2023/07/28 06:13:13;;;;;;;1.70;1.60;;;22.10;98.60;;;;;;7384152;19;19932;-76
2023/07/28 06:15:44;;;;;;;3.60;1.83;;;22.00;98.70;;;;;;7384763;19;20007;-75
2023/07/28 06:18:13;;;;;;;2.53;1.55;;;22.10;98.80;;;;;;7383375;19;20020;-75
2023/07/28 06:20:45;;;;;;;2.85;1.83;;;22.10;98.80;;;;;;7381812;19;20011;-75
2023/07/28 06:23:16;;;;;;;2.17;1.70;;;22.10;98.80;;;;;;7407049;19;20011;-75
2023/07/28 06:25:47;;;;;;;1.80;1.70;;;22.10;98.80;;;;;;7382266;19;20079;-75
2023/07/28 06:28:21;;;;;;;3.10;1.80;;;22.20;98.80;;;;;;7384736;19;20256;-75
2023/07/28 06:30:49;;;;;;;3.40;2.33;;;22.20;98.80;;;;;;7384964;19;20312;-75
2023/07/28 06:33:20;;;;;;;3.22;2.10;;;22.20;98.70;;;;;;7382473;19;20019;-75
2023/07/28 06:35:49;;;;;;;3.40;2.45;;;22.20;98.70;;;;;;7386888;19;20014;-76
2023/07/28 06:38:21;;;;;;;2.72;2.10;;;22.30;98.60;;;;;;7407437;19;20010;-75
2023/07/28 06:40:49;;;;;;;;;;;22.20;98.70;;;;;;7388490;19;20015;-75
2023/07/28 06:43:19;;;;;;;4.20;2.03;;;22.20;98.80;;;;;;7387535;19;19910;-76
2023/07/28 06:45:50;;;;;;;3.27;1.97;;;22.20;98.60;;;;;;7389275;19;20010;-76
2023/07/28 06:48:19;;;;;;;1.77;1.63;;;22.20;98.60;;;;;;7386782;19;20294;-76
2023/07/28 06:50:48;;;;;;;5.07;2.17;;;22.30;98.60;;;;;;7387001;19;20023;-74
2023/07/28 06:53:20;;;;;;;2.95;1.73;;;22.30;98.60;;;;;;7413351;19;20010;-75
2023/07/28 06:55:48;;;;;;;;;;;22.30;98.70;;;;;;7387251;19;20019;-75
2023/07/28 06:58:19;;;;;;;2.70;1.80;;;22.20;98.70;;;;;;7384368;19;19915;-75
2023/07/28 07:00:48;;;;;;;;;;;22.20;98.70;;;;;;7387716;19;20002;-74
2023/07/28 07:03:17;;;;;;;3.67;2.53;;;22.30;98.80;;;;;;7387145;19;20260;-74
2023/07/28 07:05:46;;;;;;;7.00;3.33;;;22.30;98.70;;;;;;7386557;19;20007;-73
2023/07/28 07:08:14;;;;;;;7.05;2.50;;;22.30;98.80;;;;;;7408833;19;20011;-74
2023/07/28 07:10:51;;;;;;;1.60;1.40;;;22.20;98.90;;;;;;7386009;19;20003;-73
2023/07/28 07:13:20;;;;;;;4.55;1.52;;;22.20;99.00;;;;;;7389507;19;20006;-76
2023/07/28 07:15:53;;;;;;;2.25;1.27;;;22.20;98.90;;;;;;7387102;19;20237;-75
2023/07/28 07:18:21;;;;;;;5.50;1.00;;;22.20;98.90;;;;;;7389183;19;20010;-75
2023/07/28 07:20:50;;;;;;;2.38;1.88;;;22.20;99.00;;;;;;7391256;19;20006;-74
2023/07/28 07:23:19;;;;;;;7.53;1.45;;;22.20;99.10;;;;;;7412047;19;20013;-75
2023/07/28 07:25:53;;;;;;;1.15;0.98;;;22.20;99.20;;;;;;7387796;19;20068;-77
2023/07/28 07:28:23;;;;;;;1.73;1.02;;;22.20;99.30;;;;;;7385801;19;20450;-77
2023/07/28 07:30:54;;;;;;;2.97;1.00;;;22.10;99.40;;;;;;7386175;19;20016;-73
2023/07/28 07:33:22;;;;;;;2.53;1.20;;;22.00;99.50;;;;;;7389508;19;20322;-73
2023/07/28 07:35:51;;;;;;;3.90;1.10;;;21.80;99.70;;;;;;7388622;19;20006;-73
2023/07/28 07:38:22;;;;;;;0.63;0.63;;;21.90;99.90;;;;;;7409154;19;20381;-76
2023/07/28 07:40:54;;;;;;;0.60;0.60;;;21.90;99.90;;;;;;7389102;19;20011;-74
2023/07/28 07:43:22;;;;;;;3.28;0.90;;;21.80;99.90;;;;;;7387475;19;20024;-77
2023/07/28 07:45:54;;;;;;;1.55;0.82;;;21.90;99.90;;;;;;7384353;19;20031;-77
2023/07/28 07:48:26;;;;;;;3.97;0.55;;;22.00;99.90;;;;;;7386450;19;20023;-77
2023/07/28 07:50:54;;;;;;;1.20;0.70;;;22.00;99.90;;;;;;7386477;19;20031;-77
2023/07/28 07:53:23;;;;;;;1.60;0.40;;;21.90;99.90;;;;;;7407780;19;20020;-75
2023/07/28 07:55:55;;;;;;;1.38;0.60;;;21.90;99.90;;;;;;7386001;19;20014;-76
2023/07/28 07:58:26;;;;;;;0.90;0.60;;;22.00;99.90;;;;;;7383895;19;20002;-77
2023/07/28 08:00:55;;;;;;;1.27;0.57;;;22.00;99.90;;;;;;7385924;19;20023;-76
2023/07/28 08:03:26;;;;;;;1.77;0.70;;;22.10;99.90;;;;;;7385063;19;20013;-75
2023/07/28 08:05:57;;;;;;;2.05;0.82;;;22.10;99.90;;;;;;7384599;19;20059;-73
2023/07/28 08:08:27;;;;;;;0.85;0.73;;;22.20;99.90;;;;;;7408423;19;20023;-75
2023/07/28 08:11:01;;;;;;;1.23;0.47;;;22.30;99.90;;;;;;7384408;19;20006;-74
2023/07/28 08:13:29;;;;;;;1.20;0.75;;;22.30;99.90;;;;;;7384370;19;19999;-74
2023/07/28 08:15:58;;;;;;;0.70;0.57;;;22.20;99.90;;;;;;7384480;19;20011;-76
2023/07/28 08:18:27;;;;;;;3.60;0.68;;;22.30;99.90;;;;;;7384020;19;20393;-76
2023/07/28 08:20:56;;;;;;;1.45;0.60;;;22.30;99.90;;;;;;7384763;19;20009;-74
2023/07/28 08:23:28;;;;;;;5.57;0.90;;;22.40;99.90;;;;;;7403586;19;20285;-76
2023/07/28 08:25:59;;;;;;;0.70;0.70;;;22.40;99.90;;;;;;7389717;19;20383;-77
2023/07/28 08:28:27;;;;;;;;;;;22.40;99.90;;;;;;7391157;19;20018;-73
2023/07/28 08:30:59;;;;;;;1.85;0.70;;;22.50;99.90;;;;;;7386498;19;19915;-75
2023/07/28 08:33:29;;;;;;;2.10;0.73;;;22.50;99.80;;;;;;7387684;19;20002;-76
2023/07/28 08:35:58;;;;;;;2.88;1.00;;;22.50;99.70;;;;;;7385247;19;20038;-77
2023/07/28 08:38:31;;;;;;;3.42;1.23;;;22.50;99.90;;;;;;7407580;19;20014;-75
2023/07/28 08:41:06;;;;;;;2.85;1.17;;;22.60;99.90;;;;;;7383971;19;20003;-77
2023/07/28 08:43:44;;;;;;;2.30;0.90;;;22.60;99.90;;;;;;7388291;19;20038;-77
2023/07/28 08:46:15;;;;;;;1.35;1.00;;;22.60;99.90;;;;;;7389593;19;20364;-77
2023/07/28 08:48:47;;;;;;;1.38;1.00;;;22.60;99.70;;;;;;7386862;19;20155;-77
2023/07/28 08:51:16;;;;;;;2.00;1.40;;;22.70;99.60;;;;;;7390721;19;20010;-75
2023/07/28 08:53:59;;;;;;;1.38;1.08;;;22.70;99.60;;;;;;7385891;19;20372;-77
2023/07/28 08:56:33;;;;;;;3.95;1.02;;;22.70;99.90;;;;;;7409507;19;20013;-81
2023/07/28 08:59:02;;;;;;;0.80;0.80;;;22.70;99.90;;;;;;7386637;19;20006;-78
2023/07/28 09:01:53;;;;;;;;;;;;;;;;;;;;;
2023/07/28 09:04:22;;;;;;;4.90;1.10;;;22.90;99.80;;;;;;7389754;19;20002;-77
2023/07/28 09:06:53;;;;;;;1.10;0.93;;;23.00;99.80;;;;;;7384168;19;20376;-75
2023/07/28 09:09:24;;;;;;;1.17;1.02;;;23.00;99.90;;;;;;7387838;19;20007;-77
2023/07/28 09:11:58;;;;;;;2.58;1.05;;;23.10;99.90;;;;;;7384881;19;20070;-76
2023/07/28 09:14:26;;;;;;;2.20;0.90;;;23.20;99.80;;;;;;7408280;19;20030;-74
2023/07/28 09:16:56;;;;;;;1.25;1.08;;;23.20;99.50;;;;;;7381970;19;20011;-76
2023/07/28 09:19:27;;;;;;;1.00;1.00;;;23.20;99.20;;;;;;7381168;19;20633;-76
2023/07/28 09:22:11;;;;;;;1.50;0.88;;;23.20;99.30;;;;;;7384258;19;20009;-79
2023/07/28 09:24:41;;;;;;;2.13;1.20;;;23.20;99.30;;;;;;7385772;19;20002;-77
2023/07/28 09:27:32;;;;;;;1.80;1.00;;;23.20;99.40;;;;;;7389216;19;20010;-77
2023/07/28 09:30:04;;;;;;;;;;;23.20;99.20;;;;;;7388323;19;20010;-79
2023/07/28 09:32:36;;;;;;;1.33;0.98;;;23.10;98.80;;;;;;7408039;19;19995;-78
2023/07/28 09:35:12;;;;;;;1.17;1.08;;;23.10;99.20;;;;;;7388602;19;20354;-77
2023/07/28 09:37:45;;;;;;;1.65;1.10;;;23.10;99.40;;;;;;7387377;19;20029;-78
2023/07/28 09:40:16;;;;;;;4.32;1.40;;;23.10;99.50;;;;;;7386837;19;20063;-76
2023/07/28 09:42:49;;;;;;;1.38;1.27;;;23.20;99.40;;;;;;7387182;19;20010;-77
2023/07/28 09:45:21;;;;;;;1.38;1.20;;;23.20;99.60;;;;;;7382855;19;20011;-75
2023/07/28 09:47:53;;;;;;;1.30;1.20;;;23.20;99.70;;;;;;7382946;19;20007;-76
2023/07/28 09:50:32;;;;;;;2.35;1.15;;;23.30;99.90;;;;;;7407336;19;20260;-79
2023/07/28 09:53:05;;;;;;;1.58;1.10;;;23.30;99.90;;;;;;7386887;19;20066;-77
2023/07/28 09:55:35;;;;;;;1.75;1.13;;;23.40;99.70;;;;;;7386846;19;20007;-77
2023/07/28 09:58:15;;;;;;;4.82;1.42;;;23.40;99.70;;;;;;7386005;19;20013;-78
2023/07/28 10:00:46;;;;;;;3.13;1.20;;;23.50;99.90;;;;;;7388383;19;20026;-77
2023/07/28 10:03:15;;;;;;;;;;;23.50;99.80;;;;;;7382651;19;19999;-75
2023/07/28 10:05:44;;;;;;;1.20;1.10;;;23.50;99.50;;;;;;7382482;19;19910;-75
2023/07/28 10:08:15;;;;;;;1.20;1.10;;;23.40;99.30;;;;;;7405292;19;20011;-76
2023/07/28 10:10:45;;;;;;;1.55;1.38;;;23.40;99.50;;;;;;7385943;19;20074;-75
2023/07/28 10:13:28;;;;;;;0.93;0.90;;;23.40;99.90;;;;;;7389773;19;20066;-75
2023/07/28 10:15:58;;;;;;;3.47;1.40;;;23.60;99.90;;;;;;7389381;19;20006;-77
2023/07/28 10:18:31;;;;;;;4.22;1.58;;;23.70;99.90;;;;;;7388252;19;20019;-77
2023/07/28 10:21:08;;;;;;;1.77;1.67;;;23.90;99.90;;;;;;7391413;19;20007;-78
2023/07/28 10:23:38;;;;;;;2.40;1.70;;;24.00;99.90;;;;;;7392962;19;20011;-76
2023/07/28 10:26:09;;;;;;;4.55;1.98;;;24.20;99.80;;;;;;7415666;19;20062;-79
2023/07/28 10:28:41;;;;;;;1.50;1.40;;;24.20;98.70;;;;;;7389492;19;20002;-77
2023/07/28 10:31:16;;;;;;;2.00;1.80;;;24.20;98.50;;;;;;7391457;19;20020;-75
2023/07/28 10:33:47;;;;;;;1.80;1.70;;;24.20;98.50;;;;;;7389722;19;20019;-74
2023/07/28 10:36:17;;;;;;;7.90;1.42;;;24.30;99.20;;;;;;7386474;19;20011;-76
2023/07/28 10:38:46;;;;;;;1.52;1.42;;;24.40;99.00;;;;;;7387818;19;20015;-75
2023/07/28 10:41:18;;;;;;;3.00;1.92;;;24.50;99.00;;;;;;7410411;19;20019;-75
2023/07/28 10:43:49;;;;;;;2.35;1.65;;;24.50;99.20;;;;;;7390570;19;20611;-76
2023/07/28 10:46:21;;;;;;;2.78;1.67;;;24.60;99.10;;;;;;7394018;19;20010;-74
2023/07/28 10:48:52;;;;;;;3.13;1.90;;;24.70;99.00;;;;;;7389514;19;20018;-74
2023/07/28 10:51:25;;;;;;;2.22;1.80;;;24.80;99.20;;;;;;7391534;19;20027;-74
2023/07/28 10:53:54;;;;;;;5.38;1.90;;;24.90;99.60;;;;;;7388594;19;20007;-74
2023/07/28 10:56:24;;;;;;;3.60;1.75;;;25.00;99.00;;;;;;7411833;19;20015;-74
2023/07/28 10:59:06;;;;;;;1.60;1.50;;;25.00;97.70;;;;;;7386295;19;20007;-74
2023/07/28 11:01:36;;;;;;;1.67;1.58;;;25.00;97.90;;;;;;7389965;19;19999;-74
2023/07/28 11:04:13;;;;;;;4.25;1.90;;;25.00;98.10;;;;;;7390626;19;20038;-75
2023/07/28 11:06:45;;;;;;;2.67;1.70;;;25.00;98.20;;;;;;7391922;19;20107;-73
2023/07/28 11:09:14;;;;;;;2.67;1.60;;;24.90;97.00;;;;;;7386345;19;20019;-74
2023/07/28 11:11:43;;;;;;;4.22;1.70;;;24.80;97.20;;;;;;7387244;19;20013;-74
2023/07/28 11:14:17;;;;;;;2.05;1.55;;;24.80;97.40;;;;;;7409892;19;20015;-74
2023/07/28 11:16:47;;;;;;;2.17;1.65;;;24.80;97.40;;;;;;7385910;19;20023;-74
2023/07/28 11:19:18;;;;;;;3.55;1.60;;;24.80;97.80;;;;;;7385783;19;20046;-74
2023/07/28 11:21:51;;;;;;;4.80;1.75;;;24.90;97.40;;;;;;7384916;19;20070;-74
2023/07/28 11:24:23;;;;;;;1.50;1.40;;;24.90;96.70;;;;;;7388368;19;20126;-74
2023/07/28 11:26:53;;;;;;;3.33;1.75;;;24.90;96.30;;;;;;7387577;19;20010;-74
2023/07/28 11:29:26;;;;;;;3.17;1.58;;;24.90;96.70;;;;;;7413754;19;20007;-75
2023/07/28 11:31:55;;;;;;;4.82;1.70;;;24.80;96.60;;;;;;7387995;19;20026;-74
2023/07/28 11:34:24;;;;;;;1.92;1.73;;;24.70;97.00;;;;;;7386045;19;20007;-74
2023/07/28 11:36:53;;;;;;;3.90;1.48;;;24.80;97.70;;;;;;7386739;19;20402;-75
2023/07/28 11:39:24;;;;;;;1.73;1.35;;;24.90;96.80;;;;;;7389193;19;20011;-74
2023/07/28 11:41:54;;;;;;;2.67;1.42;;;24.90;96.80;;;;;;7389574;19;20025;-75
2023/07/28 11:44:31;;;;;;;2.00;1.60;;;24.90;97.00;;;;;;7413242;19;20039;-78
2023/07/28 11:47:06;;;;;;;4.25;1.70;;;25.20;97.20;;;;;;7389798;19;20011;-78
2023/07/28 11:49:37;;;;;;;2.47;1.98;;;25.30;96.70;;;;;;7389932;19;20003;-78
2023/07/28 11:52:07;;;;;;;1.67;1.58;;;25.50;96.90;;;;;;7389511;19;20254;-76
2023/07/28 11:54:37;;;;;;;1.67;1.50;;;25.60;97.10;;;;;;7390705;19;20031;-76
2023/07/28 11:57:10;;;;;;;5.13;1.90;;;25.60;96.80;;;;;;7390414;19;20010;-76
2023/07/28 11:59:49;;;;;;;1.88;1.77;;;25.50;97.30;;;;;;7389903;19;20014;-79
2023/07/28 12:02:40;;;;;;;2.00;1.80;;;25.50;97.40;;;;;;7419884;19;20039;-78
2023/07/28 12:05:15;;;;;;;1.50;1.40;;;25.30;96.80;;;;;;7389910;19;20007;-77
2023/07/28 12:07:49;;;;;;;1.15;1.05;;;25.10;96.50;;;;;;7388585;19;20014;-77
2023/07/28 12:10:24;;;;;;;3.28;1.17;;;25.00;96.90;;;;;;7390582;19;20002;-80
2023/07/28 12:12:53;;;;;;;2.35;1.17;;;24.80;96.60;;;;;;7390838;19;20011;-77
2023/07/28 12:15:30;;;;;;;2.92;1.15;;;24.90;97.50;;;;;;7388233;19;20388;-77
2023/07/28 12:18:13;;;;;;;1.30;1.05;;;25.10;97.60;;;;;;7385290;19;20028;-76
2023/07/28 12:20:46;;;;;;;1.92;1.25;;;25.20;96.50;;;;;;7383308;19;20346;-75
2023/07/28 12:23:16;;;;;;;2.80;1.20;;;25.20;96.60;;;;;;7411748;19;20356;-76
2023/07/28 12:25:46;;;;;;;0.90;0.90;;;25.40;96.80;;;;;;7384135;19;20070;-75
2023/07/28 12:28:17;;;;;;;3.17;1.05;;;25.30;96.60;;;;;;7384343;19;20291;-76
2023/07/28 12:30:48;;;;;;;;;;;25.10;96.30;;;;;;7386871;19;20016;-76
2023/07/28 12:33:17;;;;;;;;;;;25.10;96.10;;;;;;7386625;19;20162;-75
2023/07/28 12:35:45;;;;;;;1.70;0.70;;;25.10;95.80;;;;;;7383895;19;19919;-75
2023/07/28 12:38:16;;;;;;;1.02;0.63;;;25.10;95.60;;;;;;7406286;19;20011;-76
2023/07/28 12:40:45;;;;;;;0.90;0.50;;;25.10;95.60;;;;;;7382209;19;20017;-76
2023/07/28 12:43:13;;;;;;;1.17;0.50;;;25.20;95.50;;;;;;7384037;19;20009;-75
2023/07/28 12:45:43;;;;;;;0.60;0.50;;;25.50;95.30;;;;;;7385035;19;20009;-79
2023/07/28 12:48:15;;;;;;;0.52;0.50;;;25.70;94.90;;;;;;7384153;19;20010;-75
2023/07/28 12:50:43;;;;;;;0.32;0.32;;;25.80;95.10;;;;;;7384130;19;20007;-74
2023/07/28 12:53:14;;;;;;;0.90;0.60;;;26.00;94.40;;;;;;7405626;19;20013;-74
2023/07/28 12:55:43;;;;;;;3.13;0.50;;;26.10;94.10;;;;;;7383728;19;20075;-73
2023/07/28 12:58:18;;;;;;;1.30;0.50;;;26.30;94.10;;;;;;7387984;19;20003;-78
2023/07/28 13:00:51;;;;;;;2.78;0.60;;;26.40;93.80;;;;;;7390135;19;20377;-78
2023/07/28 13:03:23;;;;;;;1.00;0.55;;;26.40;93.40;;;;;;7390486;19;20433;-77
2023/07/28 13:05:51;;;;;;;0.68;0.40;;;26.30;92.90;;;;;;7385494;19;20020;-76
2023/07/28 13:08:20;;;;;;;0.85;0.80;;;26.20;93.20;;;;;;7406153;19;20230;-77
2023/07/28 13:10:49;;;;;;;0.65;0.60;;;26.00;93.30;;;;;;7384323;19;20019;-74